sensor_id;sensor_type;location;lat;lon;timestamp;pressure;altitude;pressure_sealevel;temperature;humidity
49567;BME280;35472;50.514;30.448;2022-07-25T00:00:21;99644.59;;;19.54;100.00
49567;BME280;35472;50.514;30.448;2022-07-25T00:02:47;99640.00;;;19.59;100.00
49567;BME280;35472;50.514;30.448;2022-07-25T00:05:12;99642.75;;;19.25;100.00
49567;BME280;35472;50.514;30.448;2022-07-25T00:07:38;99648.13;;;19.22;100.00
49567;BME280;35472;50.514;30.448;2022-07-25T00:10:04;99642.56;;;19.31;100.00
49567;BME280;35472;50.514;30.448;2022-07-25T00:12:29;99642.28;;;19.56;100.00
49567;BME280;35472;50.514;30.448;2022-07-25T00:14:55;99643.19;;;19.48;100.00
49567;BME280;35472;50.514;30.448;2022-07-25T00:17:20;99642.81;;;19.38;100.00
49567;BME280;35472;50.514;30.448;2022-07-25T00:19:45;99643.41;;;19.43;100.00
49567;BME280;35472;50.514;30.448;2022-07-25T00:22:11;99641.63;;;19.06;100.00
49567;BME280;35472;50.514;30.448;2022-07-25T00:24:36;99650.78;;;19.18;100.00
49567;BME280;35472;50.514;30.448;2022-07-25T00:27:02;99651.25;;;19.20;100.00
49567;BME280;35472;50.514;30.448;2022-07-25T00:29:28;99641.63;;;19.06;100.00
49567;BME280;35472;50.514;30.448;2022-07-25T00:31:53;99654.72;;;19.17;100.00
49567;BME280;35472;50.514;30.448;2022-07-25T00:34:19;99646.13;;;19.10;100.00
49567;BME280;35472;50.514;30.448;2022-07-25T00:36:44;99650.88;;;18.89;100.00
49567;BME280;35472;50.514;30.448;2022-07-25T00:39:09;99660.81;;;19.23;100.00
49567;BME280;35472;50.514;30.448;2022-07-25T00:41:35;99651.81;;;19.47;100.00
49567;BME280;35472;50.514;30.448;2022-07-25T00:44:00;99649.22;;;19.09;100.00
49567;BME280;35472;50.514;30.448;2022-07-25T00:46:26;99651.25;;;19.20;100.00
49567;BME280;35472;50.514;30.448;2022-07-25T00:48:51;99650.03;;;19.30;100.00
49567;BME280;35472;50.514;30.448;2022-07-25T00:51:17;99644.06;;;19.07;100.00
49567;BME280;35472;50.514;30.448;2022-07-25T00:53:43;99647.88;;;19.15;100.00
49567;BME280;35472;50.514;30.448;2022-07-25T00:56:09;99643.50;;;19.14;100.00
49567;BME280;35472;50.514;30.448;2022-07-25T00:58:34;99649.63;;;19.19;100.00
49567;BME280;35472;50.514;30.448;2022-07-25T01:01:00;99641.28;;;18.86;100.00
49567;BME280;35472;50.514;30.448;2022-07-25T01:03:26;99639.94;;;18.92;100.00
49567;BME280;35472;50.514;30.448;2022-07-25T01:05:51;99638.19;;;18.88;100.00
49567;BME280;35472;50.514;30.448;2022-07-25T01:08:18;99639.72;;;18.97;100.00
49567;BME280;35472;50.514;30.448;2022-07-25T01:10:45;99645.34;;;18.89;100.00
49567;BME280;35472;50.514;30.448;2022-07-25T01:13:10;99648.44;;;19.08;100.00
49567;BME280;35472;50.514;30.448;2022-07-25T01:15:36;99641.34;;;18.98;100.00
49567;BME280;35472;50.514;30.448;2022-07-25T01:18:01;99645.00;;;19.11;100.00
49567;BME280;35472;50.514;30.448;2022-07-25T01:20:28;99645.88;;;18.82;100.00
49567;BME280;35472;50.514;30.448;2022-07-25T01:22:54;99648.91;;;18.89;100.00
49567;BME280;35472;50.514;30.448;2022-07-25T01:25:20;99656.13;;;18.82;100.00
49567;BME280;35472;50.514;30.448;2022-07-25T01:27:46;99647.09;;;18.64;100.00
49567;BME280;35472;50.514;30.448;2022-07-25T01:30:15;99644.25;;;18.81;100.00
49567;BME280;35472;50.514;30.448;2022-07-25T01:32:41;99641.63;;;18.85;100.00
49567;BME280;35472;50.514;30.448;2022-07-25T01:35:08;99645.91;;;18.44;100.00
49567;BME280;35472;50.514;30.448;2022-07-25T01:37:34;99642.34;;;18.73;100.00
49567;BME280;35472;50.514;30.448;2022-07-25T01:40:00;99640.88;;;18.75;100.00
49567;BME280;35472;50.514;30.448;2022-07-25T01:42:26;99638.84;;;18.55;100.00
49567;BME280;35472;50.514;30.448;2022-07-25T01:44:52;99639.97;;;18.63;100.00
49567;BME280;35472;50.514;30.448;2022-07-25T01:47:17;99640.16;;;18.58;100.00
49567;BME280;35472;50.514;30.448;2022-07-25T01:49:43;99643.28;;;18.47;100.00
49567;BME280;35472;50.514;30.448;2022-07-25T01:52:09;99639.78;;;18.38;100.00
49567;BME280;35472;50.514;30.448;2022-07-25T01:54:38;99652.72;;;18.46;100.00
49567;BME280;35472;50.514;30.448;2022-07-25T01:57:06;99645.53;;;18.25;100.00
49567;BME280;35472;50.514;30.448;2022-07-25T01:59:35;99646.66;;;18.53;100.00
49567;BME280;35472;50.514;30.448;2022-07-25T02:02:00;99651.38;;;18.53;100.00
49567;BME280;35472;50.514;30.448;2022-07-25T02:04:26;99647.22;;;18.38;100.00
49567;BME280;35472;50.514;30.448;2022-07-25T02:06:51;99649.16;;;18.46;100.00
49567;BME280;35472;50.514;30.448;2022-07-25T02:09:17;99660.00;;;18.21;100.00
49567;BME280;35472;50.514;30.448;2022-07-25T02:11:42;99663.28;;;18.06;100.00
49567;BME280;35472;50.514;30.448;2022-07-25T02:14:07;99650.47;;;18.02;100.00
49567;BME280;35472;50.514;30.448;2022-07-25T02:16:33;99662.94;;;18.16;100.00
49567;BME280;35472;50.514;30.448;2022-07-25T02:18:58;99661.78;;;18.17;100.00
49567;BME280;35472;50.514;30.448;2022-07-25T02:24:40;99657.00;;;17.97;100.00
49567;BME280;35472;50.514;30.448;2022-07-25T02:27:05;99656.38;;;18.30;100.00
49567;BME280;35472;50.514;30.448;2022-07-25T02:29:31;99657.06;;;18.27;100.00
49567;BME280;35472;50.514;30.448;2022-07-25T02:31:57;99660.09;;;18.34;100.00
49567;BME280;35472;50.514;30.448;2022-07-25T02:34:22;99651.91;;;18.08;100.00
49567;BME280;35472;50.514;30.448;2022-07-25T02:36:48;99646.97;;;17.92;100.00
49567;BME280;35472;50.514;30.448;2022-07-25T02:39:14;99651.50;;;17.97;100.00
49567;BME280;35472;50.514;30.448;2022-07-25T02:41:39;99658.34;;;17.91;100.00
49567;BME280;35472;50.514;30.448;2022-07-25T02:44:05;99657.84;;;17.89;100.00
49567;BME280;35472;50.514;30.448;2022-07-25T02:46:34;99660.28;;;17.82;100.00
49567;BME280;35472;50.514;30.448;2022-07-25T02:49:00;99657.88;;;17.63;100.00
49567;BME280;35472;50.514;30.448;2022-07-25T02:51:26;99661.56;;;17.93;100.00
49567;BME280;35472;50.514;30.448;2022-07-25T02:53:52;99665.63;;;17.87;100.00
49567;BME280;35472;50.514;30.448;2022-07-25T02:56:17;99670.53;;;17.81;100.00
49567;BME280;35472;50.514;30.448;2022-07-25T02:58:43;99667.94;;;17.85;100.00
49567;BME280;35472;50.514;30.448;2022-07-25T03:01:08;99677.28;;;18.01;100.00
49567;BME280;35472;50.514;30.448;2022-07-25T03:03:33;99677.59;;;18.08;100.00
49567;BME280;35472;50.514;30.448;2022-07-25T03:05:59;99672.59;;;18.40;100.00
49567;BME280;35472;50.514;30.448;2022-07-25T03:08:24;99681.28;;;18.21;100.00
49567;BME280;35472;50.514;30.448;2022-07-25T03:10:51;99671.88;;;18.13;100.00
49567;BME280;35472;50.514;30.448;2022-07-25T03:13:17;99680.25;;;17.96;100.00
49567;BME280;35472;50.514;30.448;2022-07-25T03:15:42;99677.56;;;18.17;100.00
49567;BME280;35472;50.514;30.448;2022-07-25T03:18:08;99670.84;;;17.80;100.00
49567;BME280;35472;50.514;30.448;2022-07-25T03:20:33;99676.56;;;18.21;100.00
49567;BME280;35472;50.514;30.448;2022-07-25T03:22:58;99674.63;;;18.13;100.00
49567;BME280;35472;50.514;30.448;2022-07-25T03:25:24;99676.91;;;18.11;100.00
49567;BME280;35472;50.514;30.448;2022-07-25T03:27:49;99668.22;;;17.92;100.00
49567;BME280;35472;50.514;30.448;2022-07-25T03:30:15;99671.97;;;17.96;100.00
49567;BME280;35472;50.514;30.448;2022-07-25T03:32:40;99663.34;;;18.36;100.00
49567;BME280;35472;50.514;30.448;2022-07-25T03:35:06;99668.47;;;18.16;100.00
49567;BME280;35472;50.514;30.448;2022-07-25T03:37:32;99665.53;;;18.21;100.00
49567;BME280;35472;50.514;30.448;2022-07-25T03:39:57;99678.31;;;18.56;100.00
49567;BME280;35472;50.514;30.448;2022-07-25T03:42:22;99661.91;;;18.30;100.00
49567;BME280;35472;50.514;30.448;2022-07-25T03:44:48;99659.25;;;18.42;100.00
49567;BME280;35472;50.514;30.448;2022-07-25T03:47:14;99673.78;;;18.60;100.00
49567;BME280;35472;50.514;30.448;2022-07-25T03:49:39;99674.63;;;18.52;100.00
49567;BME280;35472;50.514;30.448;2022-07-25T03:52:04;99673.47;;;18.23;100.00
49567;BME280;35472;50.514;30.448;2022-07-25T03:54:30;99670.72;;;18.53;100.00
49567;BME280;35472;50.514;30.448;2022-07-25T03:56:55;99671.63;;;18.65;100.00
49567;BME280;35472;50.514;30.448;2022-07-25T03:59:21;99681.84;;;18.73;100.00
49567;BME280;35472;50.514;30.448;2022-07-25T04:01:47;99685.41;;;18.74;100.00
49567;BME280;35472;50.514;30.448;2022-07-25T04:04:14;99681.41;;;18.63;100.00
49567;BME280;35472;50.514;30.448;2022-07-25T04:06:40;99684.97;;;18.93;100.00
49567;BME280;35472;50.514;30.448;2022-07-25T04:09:07;99681.31;;;18.51;100.00
49567;BME280;35472;50.514;30.448;2022-07-25T04:11:33;99686.22;;;18.74;100.00
49567;BME280;35472;50.514;30.448;2022-07-25T04:14:00;99692.63;;;18.58;100.00
49567;BME280;35472;50.514;30.448;2022-07-25T04:16:27;99689.53;;;18.59;100.00
49567;BME280;35472;50.514;30.448;2022-07-25T04:18:53;99688.13;;;18.83;100.00
49567;BME280;35472;50.514;30.448;2022-07-25T04:21:19;99695.31;;;18.45;100.00
49567;BME280;35472;50.514;30.448;2022-07-25T04:23:44;99680.00;;;19.07;100.00
49567;BME280;35472;50.514;30.448;2022-07-25T04:26:10;99689.69;;;18.63;100.00
49567;BME280;35472;50.514;30.448;2022-07-25T04:28:35;99683.22;;;18.88;100.00
49567;BME280;35472;50.514;30.448;2022-07-25T04:31:01;99680.31;;;18.85;100.00
49567;BME280;35472;50.514;30.448;2022-07-25T04:33:26;99687.34;;;19.24;100.00
49567;BME280;35472;50.514;30.448;2022-07-25T04:35:52;99686.88;;;19.01;100.00
49567;BME280;35472;50.514;30.448;2022-07-25T04:38:17;99673.88;;;19.55;100.00
49567;BME280;35472;50.514;30.448;2022-07-25T04:40:43;99694.53;;;19.91;100.00
49567;BME280;35472;50.514;30.448;2022-07-25T04:43:08;99693.78;;;19.70;100.00
49567;BME280;35472;50.514;30.448;2022-07-25T04:45:34;99689.03;;;20.03;100.00
49567;BME280;35472;50.514;30.448;2022-07-25T04:48:01;99693.19;;;19.64;100.00
49567;BME280;35472;50.514;30.448;2022-07-25T04:50:27;99698.59;;;19.40;100.00
49567;BME280;35472;50.514;30.448;2022-07-25T04:52:52;99697.25;;;19.25;100.00
49567;BME280;35472;50.514;30.448;2022-07-25T04:55:18;99698.03;;;19.67;100.00
49567;BME280;35472;50.514;30.448;2022-07-25T04:57:43;99699.72;;;19.93;100.00
49567;BME280;35472;50.514;30.448;2022-07-25T05:00:09;99709.25;;;20.16;99.58
49567;BME280;35472;50.514;30.448;2022-07-25T05:02:35;99696.41;;;19.45;100.00
49567;BME280;35472;50.514;30.448;2022-07-25T05:05:01;99707.59;;;20.03;99.80
49567;BME280;35472;50.514;30.448;2022-07-25T05:07:27;99705.50;;;20.00;98.89
49567;BME280;35472;50.514;30.448;2022-07-25T05:09:53;99704.28;;;20.09;97.20
49567;BME280;35472;50.514;30.448;2022-07-25T05:12:18;99696.88;;;20.14;99.30
49567;BME280;35472;50.514;30.448;2022-07-25T05:14:44;99703.34;;;20.05;98.93
49567;BME280;35472;50.514;30.448;2022-07-25T05:17:09;99701.31;;;20.39;97.13
49567;BME280;35472;50.514;30.448;2022-07-25T05:19:35;99707.53;;;20.24;96.51
49567;BME280;35472;50.514;30.448;2022-07-25T05:22:01;99707.00;;;19.64;100.00
49567;BME280;35472;50.514;30.448;2022-07-25T05:24:26;99713.88;;;20.36;97.46
49567;BME280;35472;50.514;30.448;2022-07-25T05:26:52;99709.03;;;19.76;100.00
49567;BME280;35472;50.514;30.448;2022-07-25T05:29:17;99719.41;;;20.24;99.97
49567;BME280;35472;50.514;30.448;2022-07-25T05:31:43;99714.28;;;20.59;98.33
49567;BME280;35472;50.514;30.448;2022-07-25T05:34:08;99712.38;;;20.27;98.55
49567;BME280;35472;50.514;30.448;2022-07-25T05:36:33;99705.72;;;20.52;97.49
49567;BME280;35472;50.514;30.448;2022-07-25T05:38:59;99711.22;;;20.16;98.10
49567;BME280;35472;50.514;30.448;2022-07-25T05:41:25;99709.69;;;20.18;97.42
49567;BME280;35472;50.514;30.448;2022-07-25T05:43:51;99703.00;;;20.19;98.53
49567;BME280;35472;50.514;30.448;2022-07-25T05:46:17;99710.66;;;20.34;97.62
49567;BME280;35472;50.514;30.448;2022-07-25T05:48:42;99712.75;;;20.86;95.22
49567;BME280;35472;50.514;30.448;2022-07-25T05:51:08;99703.03;;;20.93;95.11
49567;BME280;35472;50.514;30.448;2022-07-25T05:53:34;99709.66;;;21.28;92.89
49567;BME280;35472;50.514;30.448;2022-07-25T05:55:59;99693.63;;;21.22;93.00
49567;BME280;35472;50.514;30.448;2022-07-25T05:58:25;99704.50;;;21.83;87.60
49567;BME280;35472;50.514;30.448;2022-07-25T06:00:50;99691.69;;;22.38;84.69
49567;BME280;35472;50.514;30.448;2022-07-25T06:03:17;99697.25;;;23.05;83.40
49567;BME280;35472;50.514;30.448;2022-07-25T06:05:43;99694.94;;;23.26;80.80
49567;BME280;35472;50.514;30.448;2022-07-25T06:08:08;99691.47;;;22.78;81.45
49567;BME280;35472;50.514;30.448;2022-07-25T06:10:34;99695.84;;;21.84;86.36
49567;BME280;35472;50.514;30.448;2022-07-25T06:12:59;99689.78;;;22.58;83.77
49567;BME280;35472;50.514;30.448;2022-07-25T06:15:25;99694.25;;;21.71;86.54
49567;BME280;35472;50.514;30.448;2022-07-25T06:17:50;99688.50;;;21.64;86.53
49567;BME280;35472;50.514;30.448;2022-07-25T06:20:15;99677.53;;;21.83;86.19
49567;BME280;35472;50.514;30.448;2022-07-25T06:22:41;99689.25;;;22.36;83.62
49567;BME280;35472;50.514;30.448;2022-07-25T06:25:07;99687.34;;;22.88;80.07
49567;BME280;35472;50.514;30.448;2022-07-25T06:27:32;99684.09;;;23.40;77.88
49567;BME280;35472;50.514;30.448;2022-07-25T06:29:58;99684.44;;;23.97;75.40
49567;BME280;35472;50.514;30.448;2022-07-25T06:32:23;99674.09;;;22.49;82.10
49567;BME280;35472;50.514;30.448;2022-07-25T06:34:49;99682.84;;;24.42;73.49
49567;BME280;35472;50.514;30.448;2022-07-25T06:37:15;99675.44;;;23.84;77.29
49567;BME280;35472;50.514;30.448;2022-07-25T06:39:40;99677.63;;;25.50;67.90
49567;BME280;35472;50.514;30.448;2022-07-25T06:42:06;99683.28;;;25.23;67.27
49567;BME280;35472;50.514;30.448;2022-07-25T06:44:33;99692.44;;;25.24;68.46
49567;BME280;35472;50.514;30.448;2022-07-25T06:47:00;99671.50;;;25.37;69.17
49567;BME280;35472;50.514;30.448;2022-07-25T06:49:25;99685.06;;;24.55;71.28
49567;BME280;35472;50.514;30.448;2022-07-25T06:51:54;99668.16;;;23.18;75.58
49567;BME280;35472;50.514;30.448;2022-07-25T06:54:19;99672.25;;;23.43;74.38
49567;BME280;35472;50.514;30.448;2022-07-25T06:56:45;99687.44;;;25.36;68.08
49567;BME280;35472;50.514;30.448;2022-07-25T06:59:10;99683.16;;;25.76;65.24
49567;BME280;35472;50.514;30.448;2022-07-25T07:01:36;99675.66;;;25.54;65.63
49567;BME280;35472;50.514;30.448;2022-07-25T07:04:02;99678.00;;;24.88;68.79
49567;BME280;35472;50.514;30.448;2022-07-25T07:06:31;99677.00;;;24.04;70.01
49567;BME280;35472;50.514;30.448;2022-07-25T07:08:57;99682.56;;;25.30;66.87
49567;BME280;35472;50.514;30.448;2022-07-25T07:11:23;99685.22;;;24.20;68.80
49567;BME280;35472;50.514;30.448;2022-07-25T07:13:48;99685.25;;;25.53;65.52
49567;BME280;35472;50.514;30.448;2022-07-25T07:16:13;99675.75;;;25.94;63.85
49567;BME280;35472;50.514;30.448;2022-07-25T07:18:39;99675.94;;;25.41;65.35
49567;BME280;35472;50.514;30.448;2022-07-25T07:21:05;99671.78;;;23.80;71.32
49567;BME280;35472;50.514;30.448;2022-07-25T07:23:31;99678.78;;;23.93;69.67
49567;BME280;35472;50.514;30.448;2022-07-25T07:25:56;99674.28;;;24.31;68.68
49567;BME280;35472;50.514;30.448;2022-07-25T07:28:22;99680.22;;;26.03;62.79
49567;BME280;35472;50.514;30.448;2022-07-25T07:30:47;99683.94;;;25.43;62.00
49567;BME280;35472;50.514;30.448;2022-07-25T07:33:13;99682.63;;;25.33;62.21
49567;BME280;35472;50.514;30.448;2022-07-25T07:35:38;99664.19;;;24.00;65.37
49567;BME280;35472;50.514;30.448;2022-07-25T07:38:04;99669.34;;;23.59;70.58
49567;BME280;35472;50.514;30.448;2022-07-25T07:40:30;99666.69;;;24.28;67.34
49567;BME280;35472;50.514;30.448;2022-07-25T07:42:56;99673.13;;;25.08;64.90
49567;BME280;35472;50.514;30.448;2022-07-25T07:45:25;99667.09;;;25.70;62.59
49567;BME280;35472;50.514;30.448;2022-07-25T07:47:52;99661.38;;;25.59;62.48
49567;BME280;35472;50.514;30.448;2022-07-25T07:50:20;99673.25;;;24.92;62.12
49567;BME280;35472;50.514;30.448;2022-07-25T07:52:47;99667.88;;;24.76;62.21
49567;BME280;35472;50.514;30.448;2022-07-25T07:55:13;99679.13;;;26.55;58.51
49567;BME280;35472;50.514;30.448;2022-07-25T07:57:57;99664.28;;;25.70;57.93
49567;BME280;35472;50.514;30.448;2022-07-25T08:00:24;99673.84;;;25.05;61.51
49567;BME280;35472;50.514;30.448;2022-07-25T08:02:53;99663.28;;;24.15;64.78
49567;BME280;35472;50.514;30.448;2022-07-25T08:05:26;99677.72;;;24.70;64.00
49567;BME280;35472;50.514;30.448;2022-07-25T08:07:52;99670.81;;;23.92;67.00
49567;BME280;35472;50.514;30.448;2022-07-25T08:10:27;99672.13;;;24.21;66.21
49567;BME280;35472;50.514;30.448;2022-07-25T08:12:55;99678.84;;;24.92;64.62
49567;BME280;35472;50.514;30.448;2022-07-25T08:15:21;99681.94;;;25.44;61.72
49567;BME280;35472;50.514;30.448;2022-07-25T08:17:47;99674.72;;;25.09;62.26
49567;BME280;35472;50.514;30.448;2022-07-25T08:20:15;99672.94;;;24.97;62.41
49567;BME280;35472;50.514;30.448;2022-07-25T08:22:43;99685.06;;;26.06;60.27
49567;BME280;35472;50.514;30.448;2022-07-25T08:25:12;99679.66;;;24.40;65.04
49567;BME280;35472;50.514;30.448;2022-07-25T08:27:38;99681.16;;;23.91;68.15
49567;BME280;35472;50.514;30.448;2022-07-25T08:30:07;99673.63;;;23.53;68.41
49567;BME280;35472;50.514;30.448;2022-07-25T08:32:33;99678.38;;;24.14;67.82
49567;BME280;35472;50.514;30.448;2022-07-25T08:34:59;99684.63;;;23.85;66.97
49567;BME280;35472;50.514;30.448;2022-07-25T08:37:26;99681.03;;;23.65;68.35
49567;BME280;35472;50.514;30.448;2022-07-25T08:39:52;99679.00;;;23.62;69.03
49567;BME280;35472;50.514;30.448;2022-07-25T08:42:18;99681.88;;;23.88;67.95
49567;BME280;35472;50.514;30.448;2022-07-25T08:44:49;99680.41;;;24.90;63.95
49567;BME280;35472;50.514;30.448;2022-07-25T08:47:20;99689.31;;;25.29;63.05
49567;BME280;35472;50.514;30.448;2022-07-25T08:49:46;99673.00;;;26.94;59.13
49567;BME280;35472;50.514;30.448;2022-07-25T08:52:12;99670.97;;;26.91;56.48
49567;BME280;35472;50.514;30.448;2022-07-25T08:54:37;99670.44;;;25.49;58.22
49567;BME280;35472;50.514;30.448;2022-07-25T08:57:03;99678.19;;;24.49;62.26
49567;BME280;35472;50.514;30.448;2022-07-25T08:59:30;99669.81;;;24.49;61.28
49567;BME280;35472;50.514;30.448;2022-07-25T09:01:56;99670.47;;;24.39;62.56
49567;BME280;35472;50.514;30.448;2022-07-25T09:04:23;99674.06;;;25.19;59.76
49567;BME280;35472;50.514;30.448;2022-07-25T09:06:50;99662.31;;;26.07;57.07
49567;BME280;35472;50.514;30.448;2022-07-25T09:09:16;99656.63;;;27.03;53.84
49567;BME280;35472;50.514;30.448;2022-07-25T09:11:41;99668.75;;;25.10;57.58
49567;BME280;35472;50.514;30.448;2022-07-25T09:14:09;99651.19;;;24.07;60.36
49567;BME280;35472;50.514;30.448;2022-07-25T09:16:43;99668.06;;;24.15;62.83
49567;BME280;35472;50.514;30.448;2022-07-25T09:19:20;99667.72;;;24.69;63.29
49567;BME280;35472;50.514;30.448;2022-07-25T09:22:03;99668.31;;;24.55;63.08
49567;BME280;35472;50.514;30.448;2022-07-25T09:24:29;99666.38;;;24.33;62.71
49567;BME280;35472;50.514;30.448;2022-07-25T09:26:57;99667.22;;;24.60;61.18
49567;BME280;35472;50.514;30.448;2022-07-25T09:31:51;99655.28;;;25.83;59.31
49567;BME280;35472;50.514;30.448;2022-07-25T09:34:38;99654.50;;;24.63;61.01
49567;BME280;35472;50.514;30.448;2022-07-25T09:37:06;99663.38;;;24.98;59.74
49567;BME280;35472;50.514;30.448;2022-07-25T09:41:58;99666.22;;;25.02;61.27
49567;BME280;35472;50.514;30.448;2022-07-25T09:44:24;99659.09;;;26.50;58.26
49567;BME280;35472;50.514;30.448;2022-07-25T09:46:55;99655.50;;;26.05;56.01
49567;BME280;35472;50.514;30.448;2022-07-25T09:49:24;99660.94;;;24.40;59.53
49567;BME280;35472;50.514;30.448;2022-07-25T09:51:49;99662.53;;;24.18;59.25
49567;BME280;35472;50.514;30.448;2022-07-25T09:54:16;99648.22;;;24.20;60.00
49567;BME280;35472;50.514;30.448;2022-07-25T09:56:41;99660.56;;;23.57;63.20
49567;BME280;35472;50.514;30.448;2022-07-25T09:59:06;99665.78;;;23.59;65.22
49567;BME280;35472;50.514;30.448;2022-07-25T10:01:38;99664.81;;;24.58;63.61
49567;BME280;35472;50.514;30.448;2022-07-25T10:04:13;99666.16;;;25.58;60.64
49567;BME280;35472;50.514;30.448;2022-07-25T10:06:51;99658.41;;;25.11;61.52
49567;BME280;35472;50.514;30.448;2022-07-25T10:09:19;99656.53;;;24.66;59.04
49567;BME280;35472;50.514;30.448;2022-07-25T10:12:04;99663.56;;;24.56;60.02
49567;BME280;35472;50.514;30.448;2022-07-25T10:14:30;99655.03;;;23.99;61.78
49567;BME280;35472;50.514;30.448;2022-07-25T10:16:55;99663.19;;;23.89;61.93
49567;BME280;35472;50.514;30.448;2022-07-25T10:19:44;99664.28;;;23.84;63.51
49567;BME280;35472;50.514;30.448;2022-07-25T10:22:11;99656.19;;;24.44;62.30
49567;BME280;35472;50.514;30.448;2022-07-25T10:24:37;99663.44;;;24.75;61.20
49567;BME280;35472;50.514;30.448;2022-07-25T10:27:11;99653.22;;;23.88;62.20
49567;BME280;35472;50.514;30.448;2022-07-25T10:29:38;99647.22;;;25.11;59.29
49567;BME280;35472;50.514;30.448;2022-07-25T10:32:08;99657.97;;;25.09;59.21
49567;BME280;35472;50.514;30.448;2022-07-25T10:34:35;99653.75;;;24.16;62.63
49567;BME280;35472;50.514;30.448;2022-07-25T10:37:09;99661.50;;;23.84;63.58
49567;BME280;35472;50.514;30.448;2022-07-25T10:39:39;99648.53;;;24.15;61.49
49567;BME280;35472;50.514;30.448;2022-07-25T10:42:05;99653.94;;;25.36;56.83
49567;BME280;35472;50.514;30.448;2022-07-25T10:44:44;99650.75;;;24.78;56.82
49567;BME280;35472;50.514;30.448;2022-07-25T10:47:13;99660.63;;;24.45;56.65
49567;BME280;35472;50.514;30.448;2022-07-25T10:49:43;99653.31;;;24.37;56.45
49567;BME280;35472;50.514;30.448;2022-07-25T10:52:15;99640.09;;;23.88;58.46
49567;BME280;35472;50.514;30.448;2022-07-25T10:54:55;99651.25;;;23.88;59.44
49567;BME280;35472;50.514;30.448;2022-07-25T10:57:20;99654.66;;;24.47;57.73
49567;BME280;35472;50.514;30.448;2022-07-25T10:59:46;99660.34;;;24.80;57.10
49567;BME280;35472;50.514;30.448;2022-07-25T11:02:15;99658.25;;;24.47;56.69
49567;BME280;35472;50.514;30.448;2022-07-25T11:04:44;99650.66;;;26.02;53.46
49567;BME280;35472;50.514;30.448;2022-07-25T11:07:12;99642.84;;;25.77;52.31
49567;BME280;35472;50.514;30.448;2022-07-25T11:09:39;99642.78;;;25.36;52.32
49567;BME280;35472;50.514;30.448;2022-07-25T11:12:05;99645.47;;;25.63;53.62
49567;BME280;35472;50.514;30.448;2022-07-25T11:14:36;99651.53;;;25.05;54.79
49567;BME280;35472;50.514;30.448;2022-07-25T11:17:15;99644.88;;;24.86;55.27
49567;BME280;35472;50.514;30.448;2022-07-25T11:19:43;99644.38;;;24.77;54.79
49567;BME280;35472;50.514;30.448;2022-07-25T11:22:09;99642.41;;;24.51;58.31
49567;BME280;35472;50.514;30.448;2022-07-25T11:24:39;99651.34;;;24.15;60.15
49567;BME280;35472;50.514;30.448;2022-07-25T11:27:05;99643.88;;;24.45;59.98
49567;BME280;35472;50.514;30.448;2022-07-25T11:29:32;99657.75;;;24.42;60.88
49567;BME280;35472;50.514;30.448;2022-07-25T11:32:04;99659.25;;;24.36;61.09
49567;BME280;35472;50.514;30.448;2022-07-25T11:34:32;99655.09;;;24.49;60.88
49567;BME280;35472;50.514;30.448;2022-07-25T11:36:59;99650.84;;;24.85;59.45
49567;BME280;35472;50.514;30.448;2022-07-25T11:39:27;99641.47;;;25.60;57.80
49567;BME280;35472;50.514;30.448;2022-07-25T11:42:03;99636.84;;;24.81;57.55
49567;BME280;35472;50.514;30.448;2022-07-25T11:44:36;99633.03;;;25.57;54.86
49567;BME280;35472;50.514;30.448;2022-07-25T11:47:03;99621.31;;;26.22;53.54
49567;BME280;35472;50.514;30.448;2022-07-25T11:49:29;99618.78;;;25.69;53.41
49567;BME280;35472;50.514;30.448;2022-07-25T11:51:55;99620.06;;;26.19;51.56
49567;BME280;35472;50.514;30.448;2022-07-25T11:54:21;99624.53;;;25.12;52.70
49567;BME280;35472;50.514;30.448;2022-07-25T11:56:46;99621.34;;;25.48;53.06
49567;BME280;35472;50.514;30.448;2022-07-25T11:59:12;99621.28;;;25.40;53.77
49567;BME280;35472;50.514;30.448;2022-07-25T12:01:39;99618.38;;;25.67;50.71
49567;BME280;35472;50.514;30.448;2022-07-25T12:04:17;99611.63;;;26.09;50.71
49567;BME280;35472;50.514;30.448;2022-07-25T12:06:45;99603.03;;;25.50;50.79
49567;BME280;35472;50.514;30.448;2022-07-25T12:09:13;99618.88;;;24.79;53.70
49567;BME280;35472;50.514;30.448;2022-07-25T12:11:39;99606.03;;;24.71;54.49
49567;BME280;35472;50.514;30.448;2022-07-25T12:14:05;99612.78;;;25.00;54.51
49567;BME280;35472;50.514;30.448;2022-07-25T12:16:32;99613.88;;;25.92;51.90
49567;BME280;35472;50.514;30.448;2022-07-25T12:18:58;99605.66;;;26.14;52.81
49567;BME280;35472;50.514;30.448;2022-07-25T12:21:24;99602.69;;;25.55;54.84
49567;BME280;35472;50.514;30.448;2022-07-25T12:23:51;99604.69;;;25.21;54.13
49567;BME280;35472;50.514;30.448;2022-07-25T12:26:16;99611.34;;;25.09;53.98
49567;BME280;35472;50.514;30.448;2022-07-25T12:28:42;99627.09;;;24.98;53.29
49567;BME280;35472;50.514;30.448;2022-07-25T12:31:07;99616.03;;;24.75;53.79
49567;BME280;35472;50.514;30.448;2022-07-25T12:33:34;99606.28;;;24.88;53.61
49567;BME280;35472;50.514;30.448;2022-07-25T12:36:00;99605.16;;;25.27;53.12
49567;BME280;35472;50.514;30.448;2022-07-25T12:38:25;99607.88;;;24.90;54.17
49567;BME280;35472;50.514;30.448;2022-07-25T12:40:54;99604.41;;;25.30;54.24
49567;BME280;35472;50.514;30.448;2022-07-25T12:43:20;99605.41;;;25.14;54.63
49567;BME280;35472;50.514;30.448;2022-07-25T12:45:45;99596.47;;;25.02;53.95
49567;BME280;35472;50.514;30.448;2022-07-25T12:48:16;99598.81;;;25.30;52.47
49567;BME280;35472;50.514;30.448;2022-07-25T12:50:42;99602.78;;;25.25;52.38